Final Results

Pos Bib Name Time ± Event Age Category
1. 640 Clayton Moore 00:37:44.5 00:00:00.0 Short Course M Short Course M <19
2. 670 Peter Simpson 00:38:26.9 00:00:42.4 Short Course M Short Course M 30-39
3. 753 Adrian Hudson 00:40:13.3 00:02:28.8 Short Course M Short Course M 30-39
4. 684 Travis Bell 00:40:32.7 00:02:48.2 Short Course M Short Course M 30-39
5. 806 John Price 00:40:35.9 00:02:51.4 Short Course M Short Course M 40-49
6. 843 Miguel Pereira 00:42:12.0 00:04:27.5 Short Course M Short Course M 30-39
7. 626 Ben Green 00:42:34.3 00:04:49.8 Short Course M Short Course M 19-29
8. 637 Brendan Burns 00:42:50.3 00:05:05.8 Short Course M Short Course M 40-49
9. 690 Wayne Andrews 00:43:04.2 00:05:19.7 Short Course M Short Course M 50-59
10. 777 Cooper Collins 00:46:09.1 00:08:24.6 Short Course M Short Course M <19
11. 812 William Towner 00:46:32.0 00:08:47.5 Short Course M Short Course M 40-49
12. 663 Darren Janetzki 00:47:23.3 00:09:38.8 Short Course M Short Course M 40-49
13. 697 Matthew Lusty 00:47:27.9 00:09:43.4 Short Course M Short Course M 30-39
14. 796 Douglas Thorley 00:47:41.2 00:09:56.7 Short Course M Short Course M 19-29
15. 811 Kieran Mc Dermott 00:47:44.4 00:09:59.9 Short Course M Short Course M 19-29
16. 772 Veronique Apps 00:48:10.2 00:10:25.7 Short Course F Short Course F 40-49
17. 763 Selina Ward 00:48:15.3 00:10:30.8 Short Course F Short Course F 19-29
18. 668 Elliot Tate 00:48:23.1 00:10:38.6 Short Course M Short Course M 40-49
19. 744 Charlie Strick Van Linschoten 00:48:34.7 00:10:50.2 Short Course M Short Course M 40-49
20. 691 Gordon Ramsay 00:48:44.2 00:10:59.7 Short Course M Short Course M 40-49
21. 717 Daina Nugent 00:49:35.3 00:11:50.8 Short Course F Short Course F 19-29
22. 760 Sarah Pembroke 00:49:54.6 00:12:10.1 Short Course F Short Course F 30-39
23. 762 Kerrie Schmidt 00:50:44.7 00:13:00.2 Short Course F Short Course F 50-59
24. 842 Riley Shore 00:50:52.2 00:13:07.7 Short Course M Short Course M <19
25. 852 Grant Bennett 00:51:12.5 00:13:28.0 Short Course M Short Course M 50-59
26. 794 Melinda Evans 00:51:52.6 00:14:08.1 Short Course F Short Course F 30-39
27. 779 Graeme Cary 00:51:56.0 00:14:11.5 Short Course M Short Course M 30-39
28. 808 Josh Symons 00:52:07.2 00:14:22.7 Short Course M Short Course M 30-39
29. 749 Hudson Ridoutt 00:52:15.4 00:14:30.9 Short Course M Short Course M <19
30. 631 Brendan Peckover 00:52:26.3 00:14:41.8 Short Course M Short Course M 40-49
31. 180 Vincent Fletcher 00:52:40.6 00:14:56.1 Long Course M Long Course M 30-39
32. 853 Alison Smith 00:53:21.9 00:15:37.4 Short Course F Short Course F 19-29
33. 809 Joshua Prince 00:54:11.7 00:16:27.2 Short Course M Short Course M 19-29
34. 776 Alexander Evans 00:54:14.5 00:16:30.0 Short Course M Short Course M 19-29
35. 98 Sarah Leyden 00:54:20.5 00:16:36.0 Short Course F Long Course F 30-39
T36. 523 Anne Kurkinen 00:54:37.6 00:16:53.1 Short Course F Short Course F 30-39
T36. 627 Bradley Mitchell 00:54:37.6 00:16:53.1 Short Course M Short Course M 40-49
38. 813 Clyde Quince 00:54:48.2 00:17:03.7 Short Course M Short Course M 60+
39. 686 Vaughan Jackson 00:54:56.1 00:17:11.6 Short Course M Short Course M 40-49
40. 748 Andy Burns 00:55:20.0 00:17:35.5 Short Course M Short Course M 50-59
41. 854 Alice Edwards 00:55:21.5 00:17:37.0 Short Course F Short Course F 19-29
42. 111 Matt Cooper 00:55:22.5 00:17:38.0 Long Course M Long Course M 30-39
43. 743 Chris Nichols 00:55:28.7 00:17:44.2 Short Course M Short Course M 40-49
44. 797 Liz Quince 00:55:44.9 00:18:00.4 Short Course F Short Course F 40-49
45. 804 Amelia Smith 00:55:55.2 00:18:10.7 Short Course F Short Course F 30-39
46. 172 Troy Lethlean 00:56:03.3 00:18:18.8 Long Course M Long Course M 40-49
47. 830 Jesse Donoghoe 00:56:23.9 00:18:39.4 Short Course F Short Course F 30-39
48. 814 Mal Draper 00:56:25.8 00:18:41.3 Short Course M Short Course M 60+
49. 845 Cynthia Cliff 00:56:26.2 00:18:41.7 Short Course F Short Course F 60+
50. 788 Katrina Valentine-Rigby 00:56:26.9 00:18:42.4 Short Course F Short Course F 30-39
51. 774 Glen Duffy 00:56:42.5 00:18:58.0 Short Course M Short Course M 60+
52. 798 Margaret Hadfield 00:56:43.7 00:18:59.2 Short Course F Short Course F 40-49
T53. 745 Dean Cutting 00:56:52.7 00:19:08.2 Short Course M Short Course M 50-59
T53. 793 Jeanette Annett 00:56:52.7 00:19:08.2 Short Course F Short Course F 40-49
55. 284 Daniel Williams 00:57:29.7 00:19:45.2 Long Course M Long Course M 19-29
T56. 721 Daniele Smith 00:57:39.4 00:19:54.9 Short Course F Short Course F 19-29
T56. 802 Theresa Russ 00:57:39.4 00:19:54.9 Short Course F Short Course F 19-29
58. 848 Simon Cannan 00:58:07.2 00:20:22.7 Short Course M Short Course M 40-49
59. 778 Gavin Tye 00:58:48.2 00:21:03.7 Short Course M Short Course M 40-49
60. 276 Daniel Wright 00:58:49.0 00:21:04.5 Long Course M Long Course M 30-39
61. 741 Adrian Rodgers 00:58:54.6 00:21:10.1 Short Course M Short Course M 40-49
62. 791 Laura Maidment 00:59:08.8 00:21:24.3 Short Course F Short Course F 19-29
63. 807 Jon Dicks 01:00:15.7 00:22:31.2 Short Course M Short Course M 40-49
64. 384 Scott Pearson 01:00:19.0 00:22:34.5 Long Course M Long Course M 19-29
65. 849 Claire Tanner 01:00:25.0 00:22:40.5 Short Course F Short Course F 19-29
66. 770 Tessa Kippen 01:00:33.6 00:22:49.1 Short Course F Short Course F 19-29
67. 828 Juanita Mottram 01:00:35.1 00:22:50.6 Short Course F Short Course F 40-49
68. 829 Jenny Reedman 01:00:38.7 00:22:54.2 Short Course F Short Course F 50-59
T69. 766 Shelley Kent 01:00:48.2 00:23:03.7 Short Course F Short Course F 19-29
T69. 767 Jenna Smith 01:00:48.2 00:23:03.7 Short Course F Short Course F 19-29
71. 527 Francesca Collins 01:00:50.7 00:23:06.2 Short Course F Short Course F 40-49
72. 504 Alethea Mills 01:01:07.9 00:23:23.4 Short Course F Short Course F 40-49
73. 614 Andrew Ocarroll 01:01:10.8 00:23:26.3 Short Course M Short Course M 30-39
74. 752 Scott Hawkins 01:01:23.8 00:23:39.3 Short Course M Short Course M 30-39
75. 639 Bruce Johnston 01:01:38.2 00:23:53.7 Short Course M Short Course M 40-49
76. 377 Jack Price 01:01:39.6 00:23:55.1 Long Course M Long Course M 19-29
77. 248 Brad Hector 01:01:46.3 00:24:01.8 Long Course M Long Course M 30-39
78. 757 Karen Ridoutt 01:01:59.2 00:24:14.7 Short Course F Short Course F 50-59
79. 855 Michael Spargo 01:02:00.9 00:24:16.4 Short Course M Short Course M 19-29
80. 747 Ralph Fincher 01:02:02.2 00:24:17.7 Short Course M Short Course M 50-59
81. 780 Greig Wright 01:02:04.5 00:24:20.0 Short Course M Short Course M 30-39
82. 838 Mark Smith 01:02:10.0 00:24:25.5 Short Course M Short Course M 40-49
83. 775 Alex Thompson 01:02:18.7 00:24:34.2 Short Course M Short Course M <19
84. 56 Katie Mackenzie 01:02:20.4 00:24:35.9 Long Course F Long Course F 40-49
85. 391 Afonso Ferreira 01:02:25.2 00:24:40.7 Long Course M Long Course M 30-39
86. 705 Christine Griffin 01:02:27.6 00:24:43.1 Short Course F Short Course F 50-59
87. 703 Denae Moore 01:02:32.2 00:24:47.7 Short Course F Short Course F <19
88. 387 Kelvin Martin 01:02:47.0 00:25:02.5 Long Course M Long Course M 40-49
89. 18 Darcelle Malby 01:02:48.2 00:25:03.7 Short Course F Long Course F 19-29
90. 816 Aryah Little 01:03:00.0 00:25:15.5 Short Course F Short Course F 19-29
91. 15 Britt Caling 01:03:05.4 00:25:20.9 Long Course F Long Course F 40-49
92. 508 Amanda Toyoura 01:03:34.0 00:25:49.5 Short Course F Short Course F 40-49
93. 824 Eleanor Thompson 01:03:36.4 00:25:51.9 Short Course F Short Course F 40-49
94. 341 Nathaniel Buckley 01:03:43.7 00:25:59.2 Long Course M Long Course M 30-39
95. 169 Travis Ireland 01:04:09.2 00:26:24.7 Long Course M Long Course M 40-49
96. 737 Karen Brown 01:04:36.6 00:26:52.1 Short Course F Short Course F 50-59
97. 243 Alfonso Pozo 01:04:37.6 00:26:53.1 Long Course M Long Course M 30-39
98. 373 Troy Ireland 01:04:54.7 00:27:10.2 Long Course M Long Course M 30-39
99. 815 Robyn Wyeth 01:04:55.2 00:27:10.7 Short Course F Short Course F 40-49
100. 340 Mitchell Wilton 01:05:09.3 00:27:24.8 Long Course M Long Course M 30-39
101. 837 Kate Bowe 01:05:12.1 00:27:27.6 Short Course F Short Course F 19-29
102. 280 David Wirth 01:05:23.4 00:27:38.9 Long Course M Long Course M 30-39
103. 833 Julie Andrews 01:05:29.6 00:27:45.1 Short Course F Short Course F 40-49
104. 560 Lori Van Hoof 01:05:33.3 00:27:48.8 Short Course F Short Course F 19-29
105. 850 David Cliff 01:05:34.4 00:27:49.9 Short Course M Short Course M 60+
106. 386 David Shaw 01:05:38.8 00:27:54.3 Long Course M Long Course M 30-39
107. 831 Jessica Walker 01:05:49.1 00:28:04.6 Short Course F Short Course F 19-29
108. 708 Cairine Lambole 01:05:50.4 00:28:05.9 Short Course F Short Course F 40-49
109. 247 Brad Allen 01:05:52.2 00:28:07.7 Long Course M Long Course M 30-39
110. 250 Brett Stevens 01:06:02.7 00:28:18.2 Long Course M Long Course M 50-59
111. 841 Connor Shore 01:06:21.0 00:28:36.5 Short Course M Short Course M <19
112. 781 Heath Slater 01:06:31.8 00:28:47.3 Short Course M Short Course M 40-49
113. 755 Nicole Preston 01:06:40.8 00:28:56.3 Short Course F Short Course F 40-49
114. 851 Heather Leeson 01:06:46.2 00:29:01.7 Short Course F Short Course F 50-59
T115. 832 Joanna Fack 01:06:48.9 00:29:04.4 Short Course F Short Course F 30-39
T115. 805 John Carran 01:06:48.9 00:29:04.4 Short Course M Short Course M 50-59
117. 764 Michelle Peckover 01:06:53.5 00:29:09.0 Short Course F Short Course F 30-39
118. 786 Kim Minter 01:06:55.2 00:29:10.7 Short Course F Short Course F 40-49
119. 750 Ross Jardine 01:06:58.7 00:29:14.2 Short Course M Short Course M 40-49
120. 275 Daniel Scheiner 01:07:08.5 00:29:24.0 Long Course M Long Course M 19-29
121. 242 Aaron Blair 01:07:18.2 00:29:33.7 Long Course M Long Course M 19-29
122. 334 Kerry Stewart 01:07:32.5 00:29:48.0 Long Course M Long Course M 40-49
123. 345 Ryan Bennett 01:07:54.8 00:30:10.3 Long Course M Long Course M 30-39
124. 38 Laura Donnan 01:08:04.0 00:30:19.5 Long Course F Long Course F 19-29
125. 511 Amanda Wilson 01:08:11.0 00:30:26.5 Short Course F Short Course F 30-39
126. 119 Pablo Estevez 01:08:20.7 00:30:36.2 Long Course M Long Course M 19-29
127. 823 Ellie Lowe 01:08:22.9 00:30:38.4 Short Course F Short Course F 19-29
128. 756 Kerry Smith 01:08:30.6 00:30:46.1 Short Course F Short Course F 50-59
129. 374 Warren Bickley 01:08:38.3 00:30:53.8 Long Course M Long Course M 40-49
130. 254 Christopher Jones 01:08:51.0 00:31:06.5 Long Course M Long Course M 30-39
131. 348 Samantha Simpson 01:08:52.1 00:31:07.6 Long Course F Long Course F 30-39
132. 277 Darran Wallace 01:09:03.9 00:31:19.4 Long Course M Long Course M 40-49
133. 80 Tofe Evans 01:09:18.2 00:31:33.7 Long Course M Long Course M 19-29
134. 304 Gordon Sutherland 01:09:42.2 00:31:57.7 Long Course M Long Course M 40-49
135. 311 Ian Donald 01:09:55.4 00:32:10.9 Long Course M Long Course M 40-49
136. 317 John Beer 01:10:30.7 00:32:46.2 Long Course M Long Course M 50-59
137. 43 Natalie Goodwin 01:10:32.3 00:32:47.8 Long Course F Long Course F 19-29
138. 366 Ryan Bolton 01:10:46.0 00:33:01.5 Long Course M Long Course M 19-29
T139. 364 Victoria Sugden 01:10:53.8 00:33:09.3 Long Course F Long Course F 19-29
T139. 344 Peter Randle 01:10:53.8 00:33:09.3 Long Course M Long Course M 40-49
141. 82 Craig Toomey 01:11:07.2 00:33:22.7 Long Course M Long Course M 40-49
142. 836 Kate Bishop 01:11:13.4 00:33:28.9 Short Course F Short Course F 30-39
143. 746 Donald Dearlove 01:11:38.9 00:33:54.4 Short Course M Short Course M 60+
144. 389 Dale Travers 01:11:39.5 00:33:55.0 Long Course M Long Course M 30-39
145. 388 Brad Skinner 01:11:42.4 00:33:57.9 Long Course M Long Course M 50-59
146. 333 John Drysdale 01:11:46.3 00:34:01.8 Long Course M Long Course M 30-39
147. 393 David Hemer 01:11:52.8 00:34:08.3 Long Course M Long Course M 30-39
148. 582 Alex Wentzel 01:12:05.0 00:34:20.5 Short Course M Short Course M <19
149. 840 Matt Huxtable 01:12:09.9 00:34:25.4 Short Course M Short Course M 40-49
150. 323 Naomi Christensen 01:12:13.0 00:34:28.5 Long Course F Long Course F 30-39
151. 390 Eddie Mcdermott 01:12:15.7 00:34:31.2 Long Course M Long Course M 19-29
152. 308 Greg Folan 01:12:35.2 00:34:50.7 Long Course M Long Course M 50-59
T153. 768 Sue Harding 01:12:42.8 00:34:58.3 Short Course F Short Course F 30-39
T153. 303 Gerard Daly 01:12:42.8 00:34:58.3 Long Course M Long Course M 50-59
155. 751 Matt Wentzel 01:12:51.4 00:35:06.9 Short Course M Short Course M 40-49
156. 738 Dwan Vilcins 01:12:59.9 00:35:15.4 Short Course F Short Course F 30-39
157. 279 David Mccormack 01:13:08.8 00:35:24.3 Long Course M Long Course M 40-49
158. 375 David Wood 01:13:17.9 00:35:33.4 Long Course M Long Course M 50-59
159. 734 Debbie Cotter 01:13:29.0 00:35:44.5 Short Course F Short Course F 50-59
160. 698 Carmel Fox 01:13:31.4 00:35:46.9 Short Course F Short Course F 50-59
161. 106 Jeremy Warren 01:13:38.1 00:35:53.6 Long Course M Long Course M 40-49
162. 800 Michelle Mcculloch 01:13:56.1 00:36:11.6 Short Course F Short Course F 30-39
163. 17 Erika Sanders 01:13:56.8 00:36:12.3 Long Course F Long Course F 40-49
164. 315 Joel Dickson 01:13:57.8 00:36:13.3 Long Course M Long Course M 19-29
165. 363 Tonia Krueger 01:14:06.6 00:36:22.1 Long Course F Long Course F 40-49
166. 346 Ian Ridoutt 01:14:21.8 00:36:37.3 Long Course M Long Course M 50-59
167. 787 Michelle Koehler 01:14:35.3 00:36:50.8 Short Course F Short Course F 30-39
168. 286 Jay Dorreboom 01:14:50.4 00:37:05.9 Long Course M Long Course M 40-49
169. 356 Jennifer Tanner 01:15:08.4 00:37:23.9 Long Course F Long Course F 50-59
170. 759 Sandra Brett 01:15:10.0 00:37:25.5 Short Course F Short Course F 60+
171. 104 Jason Cole 01:15:15.1 00:37:30.6 Long Course M Long Course M 40-49
172. 289 Katie Dall 01:15:27.9 00:37:43.4 Long Course F Long Course F 30-39
173. 792 Leanne Addison 01:15:52.1 00:38:07.6 Short Course F Short Course F 40-49
174. 818 Belinda Donkers 01:15:55.9 00:38:11.4 Short Course F Short Course F 30-39
175. 160 Pete Smith 01:16:28.9 00:38:44.4 Long Course M Long Course M 40-49
T176. 819 Nicole Lutze 01:16:33.7 00:38:49.2 Short Course F Short Course F 40-49
T176. 699 Carmel Rogers 01:16:33.7 00:38:49.2 Short Course F Short Course F 30-39
178. 21 Jodie Oborne 01:16:41.3 00:38:56.8 Long Course F Long Course F 40-49
179. 324 Paige Single 01:16:44.8 00:39:00.3 Long Course F Long Course F 19-29
180. 795 Lisa Walker 01:17:03.4 00:39:18.9 Short Course F Short Course F 19-29
181. 314 James Oliver 01:17:14.2 00:39:29.7 Long Course M Long Course M 30-39
182. 109 Jonathon Rossi 01:17:29.6 00:39:45.1 Long Course M Long Course M 30-39
183. 278 David Hawkins 01:17:35.1 00:39:50.6 Long Course M Long Course M 50-59
184. 246 Bob Baker 01:17:37.8 00:39:53.3 Long Course M Long Course M 50-59
185. 208 Amber Rowe 01:17:42.4 00:39:57.9 Long Course F Long Course F 30-39
186. 255 Chris Katen 01:17:52.8 00:40:08.3 Long Course M Long Course M 30-39
187. 370 Simon Brooker 01:18:10.9 00:40:26.4 Long Course M Long Course M 30-39
188. 376 Kristian Lindhe 01:18:15.0 00:40:30.5 Long Course M Long Course M 40-49
189. 281 Damian Baskerville 01:19:00.0 00:41:15.5 Long Course M Long Course M 40-49
190. 782 Hennie Coetzer 01:19:11.4 00:41:26.9 Short Course M Short Course M 50-59
191. 378 Kelly Reuss 01:19:16.5 00:41:32.0 Long Course F Long Course F 30-39
192. 310 Ian Caudwell 01:19:19.4 00:41:34.9 Long Course M Long Course M 50-59
193. 367 Malcolm Savage 01:19:33.8 00:41:49.3 Long Course M Long Course M 50-59
194. 245 Shaun Smith 01:19:41.1 00:41:56.6 Long Course M Long Course M 40-49
195. 302 Liss Cooper 01:19:45.2 00:42:00.7 Long Course F Long Course F 30-39
196. 722 Joanne Day 01:19:52.1 00:42:07.6 Short Course F Short Course F 50-59
197. 835 Karen Becker 01:19:56.0 00:42:11.5 Short Course F Short Course F 40-49
198. 197 Aimee Sutton 01:19:56.3 00:42:11.8 Long Course F Long Course F 30-39
199. 313 James Rees 01:20:39.8 00:42:55.3 Long Course M Long Course M 40-49
200. 839 Matt Spillane 01:20:40.0 00:42:55.5 Short Course M Short Course M 40-49
201. 307 Grant Reibel 01:20:51.4 00:43:06.9 Long Course M Long Course M 30-39
202. 45 Shary Braithwaite 01:20:57.5 00:43:13.0 Long Course F Long Course F 40-49
T203. 238 Tracy Baker 01:21:23.5 00:43:39.0 Short Course F Long Course F 50-59
T204. 552 Olivia Mclean 01:21:23.5 00:43:39.0 Short Course F Short Course F 40-49
T204. 846 Lyn Robertson 01:21:23.5 00:43:39.0 Short Course F Short Course F 50-59
206. 283 Ross Polst 01:21:37.8 00:43:53.3 Long Course M Long Course M 30-39
T207. 820 Bronwyn Stanbrook 01:21:50.2 00:44:05.7 Short Course F Short Course F 40-49
T207. 821 Deborah Calleja 01:21:50.2 00:44:05.7 Short Course F Short Course F 40-49
T209. 785 Karina Kemp 01:21:54.1 00:44:09.6 Short Course F Short Course F 30-39
T209. 822 Elizabeth Hipwell 01:21:54.1 00:44:09.6 Short Course F Short Course F 19-29
211. 343 Daniel Tiyce 01:22:10.8 00:44:26.3 Long Course M Long Course M 50-59
212. 272 Julia Brandenburg 01:22:23.8 00:44:39.3 Long Course F Long Course F 30-39
213. 789 Kym-Marie Bush 01:22:41.9 00:44:57.4 Short Course F Short Course F 40-49
214. 44 Rowena Smith 01:23:00.0 00:45:15.5 Long Course F Long Course F 40-49
215. 338 Matt Cartwright 01:23:09.7 00:45:25.2 Long Course M Long Course M 40-49
216. 801 Tia Shore 01:23:29.8 00:45:45.3 Short Course F Short Course F <19
217. 769 Tabitha Alexa 01:23:37.3 00:45:52.8 Short Course F Short Course F 30-39
218. 296 Lucy Milliner 01:24:13.4 00:46:28.9 Long Course F Long Course F 30-39
219. 761 Sarah Webb 01:24:16.5 00:46:32.0 Short Course F Short Course F 30-39
T220. 758 Rhonda Willis 01:24:26.4 00:46:41.9 Short Course F Short Course F 40-49
T220. 810 Ken Mcneill 01:24:26.4 00:46:41.9 Short Course M Short Course M 40-49
222. 847 Melissa Cockram 01:24:38.0 00:46:53.5 Short Course F Short Course F 40-49
223. 268 Emily Newton 01:24:44.7 00:47:00.2 Long Course F Long Course F 19-29
224. 198 Alexandra Harrison 01:24:46.2 00:47:01.7 Short Course F Long Course F 30-39
225. 740 Cecil Teran 01:24:48.1 00:47:03.6 Short Course M Short Course M 19-29
226. 342 Nick Barber 01:25:18.0 00:47:33.5 Long Course M Long Course M 30-39
227. 266 Jenny Smit 01:25:24.3 00:47:39.8 Long Course F Long Course F 50-59
228. 273 Alex Coman 01:25:38.2 00:47:53.7 Long Course M Long Course M 50-59
229. 257 Mat Kinder 01:25:41.9 00:47:57.4 Long Course M Long Course M 40-49
230. 305 Graham Binder 01:26:12.8 00:48:28.3 Long Course M Long Course M 50-59
231. 14 Angie Allan 01:26:21.0 00:48:36.5 Long Course F Long Course F 40-49
232. 249 Brandon Taylor 01:26:21.4 00:48:36.9 Long Course M Long Course M 40-49
233. 351 Sheryl-Ann Argent 01:26:22.9 00:48:38.4 Long Course F Long Course F 40-49
234. 771 Tracey Wood 01:26:23.1 00:48:38.6 Short Course F Short Course F 40-49
235. 301 Mary Belward 01:26:38.7 00:48:54.2 Long Course F Long Course F 40-49
236. 507 Ali Adams 01:26:40.8 00:48:56.3 Short Course F Short Course F 30-39
237. 237 Rebecca Corbett 01:26:46.5 00:49:02.0 Long Course F Long Course F 19-29
238. 359 Tina Chaff 01:27:14.4 00:49:29.9 Long Course F Long Course F 40-49
239. 371 Craig Walton 01:27:47.7 00:50:03.2 Long Course M Long Course M 50-59
240. 16 Lisa Cebulski 01:27:51.9 00:50:07.4 Long Course F Long Course F 30-39
241. 312 Ian Bruce 01:28:23.3 00:50:38.8 Long Course M Long Course M 40-49
242. 360 Tracey Duhig 01:28:30.0 00:50:45.5 Long Course F Long Course F 40-49
243. 328 Rebecca Randle 01:28:33.0 00:50:48.5 Long Course F Long Course F 40-49
244. 96 Garry Rogers 01:28:52.3 00:51:07.8 Long Course M Long Course M 50-59
245. 330 Natalie Riddle 01:28:52.9 00:51:08.4 Long Course F Long Course F 40-49
246. 61 Antony Sedman 01:28:55.2 00:51:10.7 Long Course M Long Course M 19-29
247. 203 Amanda Craig 01:29:15.1 00:51:30.6 Long Course F Long Course F 30-39
248. 320 Natalie Mooney 01:29:35.6 00:51:51.1 Long Course F Long Course F 30-39
249. 372 Steve Oconnor 01:29:43.7 00:51:59.2 Long Course M Long Course M 50-59
250. 352 Heather Park 01:29:50.7 00:52:06.2 Long Course F Long Course F 50-59
251. 316 John Leung 01:30:09.8 00:52:25.3 Long Course M Long Course M 30-39
252. 261 Claire Chadwick 01:30:21.9 00:52:37.4 Long Course F Long Course F 30-39
T253. 623 Rex Parsons 01:30:38.5 00:52:54.0 Short Course M Short Course M 19-29
T253. 834 Julia Wood 01:30:38.5 00:52:54.0 Short Course F Short Course F 19-29
T255. 353 Susan Mcgee 01:30:39.2 00:52:54.7 Long Course F Long Course F 40-49
T255. 292 Kate Pemberton 01:30:39.2 00:52:54.7 Long Course F Long Course F 30-39
257. 566 Lynne Doran 01:31:21.1 00:53:36.6 Short Course F Short Course F 30-39
258. 265 Abbie Hawkins 01:31:50.4 00:54:05.9 Long Course F Long Course F <19
259. 285 Edward Curl 01:32:03.8 00:54:19.3 Long Course M Long Course M 40-49
260. 350 Stephanie Pearson 01:32:04.0 00:54:19.5 Long Course F Long Course F 30-39
261. 365 Michael Wilmshurst 01:32:05.4 00:54:20.9 Long Course M Long Course M 40-49
262. 274 Daniel Chaff 01:32:08.1 00:54:23.6 Long Course M Long Course M 40-49
263. 349 Sandy Pfeffer 01:32:19.4 00:54:34.9 Long Course F Long Course F 50-59
264. 739 Paul Okeeffe 01:32:19.8 00:54:35.3 Short Course M Short Course M 40-49
265. 223 Ana Croger 01:32:20.7 00:54:36.2 Long Course F Long Course F 30-39
266. 790 Kyrle Spillane 01:32:38.5 00:54:54.0 Short Course F Short Course F 40-49
267. 827 Helen Folan 01:33:06.2 00:55:21.7 Short Course F Short Course F 50-59
268. 271 Jodie Nichols 01:33:09.9 00:55:25.4 Long Course F Long Course F 30-39
269. 259 Chelsea Smit 01:33:30.4 00:55:45.9 Long Course F Long Course F 19-29
270. 773 Yolonda Riddiford 01:33:33.9 00:55:49.4 Short Course F Short Course F 19-29
271. 236 Alyssa Webb 01:33:36.8 00:55:52.3 Long Course F Long Course F 30-39
272. 392 David Hurwood 01:33:52.6 00:56:08.1 Long Course M Long Course M 50-59
273. 332 Ruth Griffiths 01:33:52.7 00:56:08.2 Long Course F Long Course F 40-49
274. 519 Andrea Dare 01:34:08.0 00:56:23.5 Short Course F Short Course F 50-59
275. 235 Ann Obrien 01:34:11.6 00:56:27.1 Long Course F Long Course F 50-59
276. 318 Megan Owens 01:34:13.5 00:56:29.0 Long Course F Long Course F 40-49
277. 309 Gary Seager 01:34:20.2 00:56:35.7 Long Course M Long Course M 50-59
278. 319 Melissa Dawber 01:34:21.8 00:56:37.3 Long Course F Long Course F 30-39
279. 327 Bec Oliver 01:34:37.6 00:56:53.1 Long Course F Long Course F 30-39
280. 765 Shylee Cross 01:34:38.5 00:56:54.0 Short Course F Short Course F 30-39
T281. 290 Katrina Sanderson 01:34:45.6 00:57:01.1 Long Course F Long Course F 30-39
T281. 253 Chris Sanderson 01:34:45.6 00:57:01.1 Long Course M Long Course M 30-39
283. 325 Sue Bower 01:35:30.2 00:57:45.7 Long Course F Long Course F 50-59
284. 200 Alice Twomey 01:36:13.6 00:58:29.1 Long Course F Long Course F 19-29
285. 329 Renae Eaton 01:36:28.4 00:58:43.9 Long Course F Long Course F 40-49
286. 267 Michelle Phillips 01:37:41.2 00:59:56.7 Long Course F Long Course F 40-49
287. 186 Aneta Siedlecka 01:37:46.6 01:00:02.1 Long Course F Long Course F 30-39
288. 299 Lynette Kotze 01:39:06.7 01:01:22.2 Long Course F Long Course F 40-49
289. 825 Hannah Symons 01:39:08.5 01:01:24.0 Short Course F Short Course F 19-29
290. 262 Clare Leung 01:39:10.4 01:01:25.9 Long Course F Long Course F 30-39
291. 337 Matt Davis 01:39:17.0 01:01:32.5 Long Course M Long Course M 30-39
292. 264 Cheryl Price 01:39:50.5 01:02:06.0 Long Course F Long Course F 40-49
T293. 383 Nimishe Smith 01:39:54.0 01:02:09.5 Long Course F Long Course F 30-39
T293. 322 Nicole Schultze 01:39:54.0 01:02:09.5 Long Course F Long Course F 19-29
295. 240 Cath Drinkwater 01:40:20.4 01:02:35.9 Long Course F Long Course F 30-39
296. 291 Katey Cochrane 01:41:17.0 01:03:32.5 Long Course F Long Course F 30-39
297. 358 Teresa Pahl 01:41:31.2 01:03:46.7 Long Course F Long Course F 40-49
298. 335 Leon Bradford 01:42:00.2 01:04:15.7 Long Course M Long Course M 30-39
299. 252 Colin Buckley 01:42:10.1 01:04:25.6 Long Course M Long Course M 50-59
300. 368 Sean Reynolds Massey-Reed 01:43:09.1 01:05:24.6 Long Course M Long Course M 30-39
301. 295 Linda Thomson 01:43:22.2 01:05:37.7 Long Course F Long Course F 40-49
302. 256 Colin Charman 01:43:33.7 01:05:49.2 Long Course M Long Course M 30-39
303. 701 Cassandra Brown 01:44:23.7 01:06:39.2 Short Course F Short Course F 40-49
304. 369 Sherman Simpson 01:45:19.7 01:07:35.2 Long Course M Long Course M 60+
305. 321 Nicole Stirling 01:45:24.6 01:07:40.1 Long Course F Long Course F 30-39
306. 742 Christopher Davis 01:46:07.6 01:08:23.1 Short Course M Short Course M 19-29
307. 293 Lisa Bailey 01:46:39.2 01:08:54.7 Long Course F Long Course F 30-39
308. 361 Traci Wollington 01:47:53.8 01:10:09.3 Long Course F Long Course F 40-49
309. 326 Pip Stewart 01:47:56.4 01:10:11.9 Long Course F Long Course F 60+
310. 287 Scott Henry 01:48:08.1 01:10:23.6 Long Course M Long Course M 30-39
311. 331 Rosemary Warburton 01:48:15.7 01:10:31.2 Long Course F Long Course F 40-49
312. 239 Brenda Clarke 01:49:03.4 01:11:18.9 Long Course F Long Course F 50-59
313. 288 Kathryn Green 01:50:15.7 01:12:31.2 Long Course F Long Course F 40-49
T314. 568 Danielle Murray 01:51:09.5 01:13:25.0 Short Course F Short Course F 40-49
T314. 826 Hayley Gosman 01:51:09.5 01:13:25.0 Short Course F Short Course F 19-29
316. 380 Joel Clarke 01:52:30.1 01:14:45.6 Long Course M Long Course M <19
317. 379 Simone Clarke 01:52:38.0 01:14:53.5 Long Course F Long Course F 50-59
318. 382 Joe Koch 01:52:39.6 01:14:55.1 Long Course M Long Course M <19
319. 385 Sam Prior 01:52:42.3 01:14:57.8 Long Course M Long Course M 40-49
320. 298 Lynda Coulson 01:52:51.6 01:15:07.1 Long Course F Long Course F 40-49
321. 306 Grahame Adams 01:55:40.0 01:17:55.5 Long Course M Long Course M 40-49
T322. 146 Rick Fitzgerald 01:57:28.5 01:19:44.0 Long Course M Long Course M 40-49
T322. 258 Kym Charlton 01:57:28.5 01:19:44.0 Long Course F Long Course F 40-49
324. 241 Cathie Lambert 02:00:02.2 01:22:17.7 Long Course F Long Course F 50-59
325. 270 Jenny King 02:02:05.9 01:24:21.4 Long Course F Long Course F 40-49
326. 362 Trilby Barsley 02:04:16.7 01:26:32.2 Long Course F Long Course F 30-39
327. 300 Mandy Oliver 02:04:21.1 01:26:36.6 Long Course F Long Course F 40-49
328. 394 Samantha Moloney 02:05:33.9 01:27:49.4 Short Course F Long Course F 40-49
329. 381 Max Koch 02:07:00.1 01:29:15.6 Long Course M Long Course M <19
330. 354 Susie Smith 02:11:25.0 01:33:40.5 Long Course F Long Course F 60+
331. 26 Kate Macdonald 02:12:10.9 01:34:26.4 Long Course F Long Course F 60+